Weather at Castlegar/West Kootenay Regional Airport

Public forecast

Using degrees Celsius for public forecast. Weather courtesy of forecast.io.

Current aviation weather report (METAR) for Castlegar/West Kootenay Regional Airport

Retrieved 2021/09/23 13:17 UTC (39 minutes ago):

CYCG 231317Z VRB02KT 12SM FEW001 BKN014 BKN160 09/09 A3022 RMK CF1SF5AC2 CF TR SLP240

Aviation forecast (TAF) for Castlegar/West Kootenay Regional Airport

Forecast is more than 12 hours old.

Retrieved 2021-09-23 01:00 UTC (13 hours ago):

TAF CYCG 230038Z 2301/2304 01008KT P6SM VCSH FEW020 BKN080 RMK NXT FCST WILL BE ISSUED AT 231445Z